Merritt Island, Florida
Current Conditions -  °F | °C
As of 4:58 PM on Saturday 20 Dec 2014 (Local Time) from KCOF Reporting Station
Clear Clear  
Wind Chill: 70°   Ceiling: Unl
Heat Index: 70°   Visibility: 10mi
Dew Point: 65°   Wind: 8mph
Humidity: 86%   Direction: 90°E
Pressure: 30.05"   Gusts: NA
Location:  28.36°N, 80.68°W
Report Text: KCOF 202158Z AUTO 09007KT 10SM CLR 21/19 A3005 RMK AO2 SLP180 T02090185
Loading
Personal Weather Stations






























Interactive Weather Map New forecast layout! Learn more

10-Day Weather Forecast

Advertisements
Track Severe Weather on mobile